Time;durP1;ratioP1;P1;durP2;ratioP2;P2;SDS_P1;SDS_P2;PMS_P1;PMS_P2;Temp;Humidity;BMP_temperature;BMP_pressure;BME280_temperature;BME280_humidity;BME280_pressure;Samples;Min_cycle;Max_cycle;Signal;HPM_P1;HPM_P2
2023/02/09 00:01:24;;;;;;;32.80;20.43;;;-3.00;99.90;;;;;;5034320;28;20229;-50
2023/02/09 00:03:52;;;;;;;36.63;19.00;;;-3.00;99.90;;;;;;5032360;28;20210;-50
2023/02/09 00:06:21;;;;;;;29.53;19.07;;;-3.00;99.90;;;;;;5034043;28;20204;-51
2023/02/09 00:08:49;;;;;;;35.23;20.63;;;-3.10;99.90;;;;;;5033450;28;20587;-51
2023/02/09 00:11:19;;;;;;;34.03;19.77;;;-3.00;99.90;;;;;;5034281;28;20435;-50
2023/02/09 00:13:45;;;;;;;31.40;18.93;;;-3.10;99.90;;;;;;5031727;28;20468;-50
2023/02/09 00:16:14;;;;;;;33.73;19.17;;;-3.10;99.90;;;;;;5029940;28;20484;-50
2023/02/09 00:18:41;;;;;;;31.40;18.13;;;-3.20;99.90;;;;;;5034212;28;20198;-51
2023/02/09 00:21:11;;;;;;;35.87;18.87;;;-3.20;99.90;;;;;;5032837;28;20555;-50
2023/02/09 00:23:40;;;;;;;32.53;19.83;;;-3.20;99.90;;;;;;5033737;28;20472;-49
2023/02/09 00:26:10;;;;;;;30.17;18.90;;;-3.20;99.90;;;;;;5034854;28;20441;-51
2023/02/09 00:28:37;;;;;;;31.87;17.47;;;-3.30;99.90;;;;;;5033795;28;20537;-51
2023/02/09 00:31:08;;;;;;;31.53;17.50;;;-3.30;99.90;;;;;;5029512;28;20463;-50
2023/02/09 00:33:38;;;;;;;35.80;20.03;;;-3.30;99.90;;;;;;5027079;28;20466;-50
2023/02/09 00:36:06;;;;;;;30.43;17.20;;;-3.30;99.90;;;;;;5034010;28;20203;-51
2023/02/09 00:38:34;;;;;;;37.37;19.90;;;-3.30;99.90;;;;;;5034328;28;20264;-50
2023/02/09 00:41:01;;;;;;;31.10;18.93;;;-3.30;99.90;;;;;;5034284;28;20477;-50
2023/02/09 00:43:28;;;;;;;42.20;18.90;;;-3.40;99.90;;;;;;5033251;28;20225;-50
2023/02/09 00:45:55;;;;;;;31.93;18.80;;;-3.40;99.90;;;;;;5029356;28;20882;-50
2023/02/09 00:48:22;;;;;;;33.37;17.53;;;-3.40;99.90;;;;;;5029427;28;20724;-50
2023/02/09 00:50:52;;;;;;;30.00;18.10;;;-3.40;99.90;;;;;;5030661;28;20922;-51
2023/02/09 00:53:20;;;;;;;32.17;19.07;;;-3.40;99.90;;;;;;5025411;28;20454;-50
2023/02/09 00:55:47;;;;;;;35.10;18.57;;;-3.40;99.90;;;;;;5033849;28;20445;-50
2023/02/09 00:58:14;;;;;;;29.30;17.30;;;-3.50;99.90;;;;;;5031429;28;20458;-51
2023/02/09 01:00:41;;;;;;;30.40;17.30;;;-3.50;99.90;;;;;;5033019;28;20542;-50
2023/02/09 01:03:09;;;;;;;31.10;19.17;;;-3.50;99.90;;;;;;5033570;28;20602;-50
2023/02/09 01:05:38;;;;;;;32.37;18.90;;;-3.50;99.90;;;;;;5031274;28;21457;-50
2023/02/09 01:08:07;;;;;;;36.27;20.43;;;-3.60;99.90;;;;;;5027104;28;20532;-50
2023/02/09 01:10:34;;;;;;;33.57;18.53;;;-3.60;99.90;;;;;;5031422;28;20536;-51
2023/02/09 01:13:01;;;;;;;34.17;19.10;;;-3.60;99.90;;;;;;5027730;28;20463;-50
2023/02/09 01:15:28;;;;;;;33.60;21.03;;;-3.50;99.90;;;;;;5028607;28;20466;-51
2023/02/09 01:17:55;;;;;;;33.70;19.63;;;-3.60;99.90;;;;;;5032427;28;20935;-50
2023/02/09 01:20:22;;;;;;;34.57;20.30;;;-3.60;99.90;;;;;;5032808;28;20460;-52
2023/02/09 01:22:49;;;;;;;43.37;21.93;;;-3.60;99.90;;;;;;5031455;28;20467;-50
2023/02/09 01:25:18;;;;;;;35.03;20.07;;;-3.60;99.90;;;;;;5033018;28;20981;-51
2023/02/09 01:27:45;;;;;;;35.23;19.90;;;-3.70;99.90;;;;;;5031730;28;20463;-50
2023/02/09 01:30:13;;;;;;;37.57;20.77;;;-3.60;99.90;;;;;;5030993;28;21045;-50
2023/02/09 01:32:40;;;;;;;33.00;19.60;;;-3.70;99.90;;;;;;5032995;28;20444;-51
2023/02/09 01:35:08;;;;;;;38.80;20.57;;;-3.70;99.90;;;;;;5032893;28;20210;-50
2023/02/09 01:37:36;;;;;;;38.13;20.93;;;-3.70;99.90;;;;;;5031524;28;20462;-50
2023/02/09 01:40:04;;;;;;;40.37;22.27;;;-3.60;99.90;;;;;;5032350;28;20531;-51
2023/02/09 01:42:33;;;;;;;39.13;22.30;;;-3.70;99.90;;;;;;5031893;28;20547;-50
2023/02/09 01:45:19;;;;;;;38.97;20.73;;;-3.70;99.90;;;;;;5033189;28;20450;-50
2023/02/09 01:47:50;;;;;;;37.93;18.90;;;-3.70;99.90;;;;;;5032628;28;20548;-50
2023/02/09 01:50:18;;;;;;;39.23;20.63;;;-3.80;99.90;;;;;;5032485;28;20466;-50
2023/02/09 01:52:48;;;;;;;36.60;20.90;;;-3.80;99.90;;;;;;5029971;28;20458;-50
2023/02/09 01:55:20;;;;;;;37.33;20.33;;;-3.80;99.90;;;;;;5030969;28;20470;-52
2023/02/09 01:57:54;;;;;;;39.20;21.37;;;-3.70;99.90;;;;;;5025852;28;20540;-50
2023/02/09 02:00:22;;;;;;;38.33;20.67;;;-3.80;99.90;;;;;;5059286;22;21054;-51
2023/02/09 02:02:54;;;;;;;33.33;19.33;;;-3.70;99.90;;;;;;5047385;28;20473;-51
2023/02/09 02:05:22;;;;;;;30.33;19.03;;;-3.70;99.90;;;;;;5051004;28;20442;-52
2023/02/09 02:07:56;;;;;;;37.50;19.87;;;-3.70;99.90;;;;;;5049663;28;20562;-50
2023/02/09 02:10:23;;;;;;;37.33;19.90;;;-3.70;99.90;;;;;;5035545;28;20637;-51
2023/02/09 02:12:54;;;;;;;37.70;20.17;;;-3.80;99.90;;;;;;5030389;28;20447;-51
2023/02/09 02:15:22;;;;;;;39.20;21.20;;;-3.80;99.90;;;;;;5030588;28;20442;-50
2023/02/09 02:18:20;;;;;;;36.70;19.03;;;-3.80;99.90;;;;;;5021430;28;21019;-50
2023/02/09 02:21:17;;;;;;;36.23;19.03;;;-3.80;99.90;;;;;;5015020;28;21162;-50
2023/02/09 02:23:52;;;;;;;34.43;19.10;;;-3.80;99.90;;;;;;5027497;28;21031;-50
2023/02/09 02:26:47;;;;;;;34.30;18.60;;;-3.80;99.90;;;;;;5030511;28;20445;-50
2023/02/09 02:29:33;;;;;;;33.97;19.55;;;-3.80;99.90;;;;;;5018725;28;20461;-51
2023/02/09 02:32:19;;;;;;;30.73;17.67;;;-3.90;99.90;;;;;;5027354;28;20192;-51
2023/02/09 02:34:53;;;;;;;32.03;18.93;;;-3.90;99.90;;;;;;5029197;28;20457;-50
2023/02/09 02:37:46;;;;;;;35.27;18.27;;;-3.90;99.90;;;;;;5030714;28;20442;-50
2023/02/09 02:40:25;;;;;;;27.77;17.13;;;-3.80;99.90;;;;;;5027053;28;21042;-50
2023/02/09 02:42:59;;;;;;;35.33;16.93;;;-3.80;99.90;;;;;;5026067;28;20488;-51
2023/02/09 02:45:38;;;;;;;30.57;17.93;;;-3.90;99.90;;;;;;5021949;28;20459;-51
2023/02/09 02:48:20;;;;;;;32.03;17.03;;;-3.90;99.90;;;;;;5023427;28;20955;-50
2023/02/09 02:50:52;;;;;;;27.20;17.40;;;-3.90;99.90;;;;;;5029731;28;20471;-50
2023/02/09 02:53:21;;;;;;;28.33;16.40;;;-3.90;99.90;;;;;;5023051;28;20458;-50
2023/02/09 02:55:49;;;;;;;34.83;18.40;;;-3.90;99.90;;;;;;5029271;28;20508;-51
2023/02/09 02:58:20;;;;;;;25.67;17.30;;;-3.90;99.90;;;;;;5023215;28;20474;-51
2023/02/09 03:00:51;;;;;;;27.23;16.50;;;-3.90;99.90;;;;;;5027385;28;20484;-50
2023/02/09 03:03:23;;;;;;;31.57;17.00;;;-4.00;99.90;;;;;;5028642;28;20908;-50
2023/02/09 03:05:51;;;;;;;31.17;17.77;;;-4.00;99.90;;;;;;5028664;28;20555;-52
2023/02/09 03:08:18;;;;;;;25.43;17.20;;;-4.00;99.90;;;;;;5030075;28;20447;-52
2023/02/09 03:10:46;;;;;;;34.57;17.90;;;-4.00;99.90;;;;;;5029887;28;20947;-51
2023/02/09 03:13:25;;;;;;;31.93;17.40;;;-4.10;99.90;;;;;;5028881;28;20465;-51
2023/02/09 03:16:08;;;;;;;30.20;18.70;;;-4.00;99.90;;;;;;5030266;28;20857;-50
2023/02/09 03:18:43;;;;;;;26.40;17.60;;;-4.00;99.90;;;;;;5028262;28;20521;-51
2023/02/09 03:21:16;;;;;;;29.53;16.13;;;-4.10;99.90;;;;;;5033095;28;20575;-51
2023/02/09 03:23:54;;;;;;;29.97;17.70;;;-4.10;99.90;;;;;;5034342;28;20475;-51
2023/02/09 03:26:25;;;;;;;27.73;18.00;;;-4.10;99.90;;;;;;5030503;28;20469;-50
2023/02/09 03:28:54;;;;;;;33.67;18.10;;;-4.10;99.90;;;;;;5027829;28;20504;-51
2023/02/09 03:31:22;;;;;;;30.13;18.70;;;-4.10;99.90;;;;;;5032691;28;20459;-50
2023/02/09 03:33:51;;;;;;;32.53;18.17;;;-4.10;99.90;;;;;;5030166;28;20470;-51
2023/02/09 03:36:20;;;;;;;30.77;17.57;;;-4.10;99.90;;;;;;5023651;28;20461;-50
2023/02/09 03:38:47;;;;;;;29.87;17.07;;;-4.00;99.90;;;;;;5033687;28;20497;-50
2023/02/09 03:41:14;;;;;;;30.60;18.30;;;-4.10;99.90;;;;;;5030278;28;20540;-51
2023/02/09 03:46:25;;;;;;;29.43;17.13;;;-4.20;99.90;;;;;;5033205;28;20932;-51
2023/02/09 03:48:54;;;;;;;32.97;18.93;;;-4.20;99.90;;;;;;5033209;28;20438;-50
2023/02/09 03:51:21;;;;;;;32.03;18.00;;;-4.10;99.90;;;;;;5033075;28;20438;-52
2023/02/09 03:53:47;;;;;;;33.70;18.70;;;-4.20;99.90;;;;;;5031069;28;20456;-50
2023/02/09 03:56:15;;;;;;;30.70;17.63;;;-4.20;99.90;;;;;;5033606;28;20434;-50
2023/02/09 03:58:41;;;;;;;30.67;17.23;;;-4.20;99.90;;;;;;5025738;28;20895;-51
2023/02/09 04:01:10;;;;;;;33.87;18.70;;;-4.30;99.90;;;;;;5030786;28;20639;-50
2023/02/09 04:03:39;;;;;;;30.20;17.00;;;-4.30;99.90;;;;;;5032857;28;20446;-51
2023/02/09 04:06:08;;;;;;;27.40;16.87;;;-4.30;99.90;;;;;;5027359;28;20549;-50
2023/02/09 04:08:36;;;;;;;28.43;17.43;;;-4.30;99.90;;;;;;5031586;28;20920;-51
2023/02/09 04:11:03;;;;;;;32.33;18.57;;;-4.40;99.90;;;;;;5032664;28;21045;-50
2023/02/09 04:13:30;;;;;;;37.67;19.47;;;-4.40;99.90;;;;;;5033022;28;20512;-50
2023/02/09 04:15:57;;;;;;;38.60;22.80;;;-4.50;99.90;;;;;;5028625;28;20462;-50
2023/02/09 04:18:24;;;;;;;38.53;18.97;;;-4.50;99.90;;;;;;5026288;28;20538;-51
2023/02/09 04:20:51;;;;;;;41.33;20.00;;;-4.40;99.90;;;;;;5021948;28;20543;-50
2023/02/09 04:23:19;;;;;;;37.07;21.67;;;-4.50;99.90;;;;;;5031470;28;20852;-50
2023/02/09 04:25:46;;;;;;;33.07;20.97;;;-4.50;99.90;;;;;;5031983;28;20923;-50
2023/02/09 04:28:13;;;;;;;35.43;20.83;;;-4.60;99.90;;;;;;5030552;28;20466;-52
2023/02/09 04:30:42;;;;;;;38.60;19.33;;;-4.60;99.90;;;;;;5031800;28;20470;-50
2023/02/09 04:33:09;;;;;;;35.50;19.57;;;-4.60;99.90;;;;;;5026418;28;20471;-50
2023/02/09 04:35:37;;;;;;;34.97;19.20;;;-4.60;99.90;;;;;;5021061;28;20549;-51
2023/02/09 04:38:04;;;;;;;30.33;17.43;;;-4.60;99.90;;;;;;5031656;28;20451;-51
2023/02/09 04:40:32;;;;;;;26.73;16.50;;;-4.60;99.90;;;;;;5028534;28;20486;-50
2023/02/09 04:42:59;;;;;;;33.33;18.03;;;-4.60;99.90;;;;;;5024352;28;20481;-49
2023/02/09 04:45:26;;;;;;;25.37;16.07;;;-4.60;99.90;;;;;;5029987;28;20474;-49
2023/02/09 04:47:53;;;;;;;30.33;17.00;;;-4.60;99.90;;;;;;5027706;28;20951;-49
2023/02/09 04:50:22;;;;;;;33.07;18.13;;;-4.50;99.90;;;;;;5024584;28;21006;-51
2023/02/09 04:52:50;;;;;;;26.77;16.43;;;-4.50;99.90;;;;;;5022894;28;20455;-50
2023/02/09 04:55:17;;;;;;;31.47;18.07;;;-4.50;99.90;;;;;;5031939;28;20445;-50
2023/02/09 05:00:30;;;;;;;26.23;16.60;;;-4.40;99.90;;;;;;5031238;28;20480;-50
2023/02/09 05:02:57;;;;;;;26.87;15.80;;;-4.50;99.90;;;;;;5027592;28;20478;-51
2023/02/09 05:05:24;;;;;;;25.83;15.87;;;-4.40;99.90;;;;;;5025950;28;20465;-50
2023/02/09 05:07:51;;;;;;;27.67;16.40;;;-4.50;99.90;;;;;;5029763;28;20454;-51
2023/02/09 05:10:18;;;;;;;27.43;16.07;;;-4.50;99.90;;;;;;5021122;28;20980;-49
2023/02/09 05:12:47;;;;;;;26.20;15.73;;;-4.60;99.90;;;;;;5031336;28;20499;-51
2023/02/09 05:15:14;;;;;;;26.17;16.57;;;-4.60;99.90;;;;;;5031947;28;20529;-49
2023/02/09 05:17:41;;;;;;;35.13;17.37;;;-4.60;99.90;;;;;;5030499;28;20446;-50
2023/02/09 05:20:10;;;;;;;28.27;14.87;;;-4.70;99.90;;;;;;5033496;28;20466;-53
2023/02/09 05:22:37;;;;;;;26.07;15.83;;;-4.70;99.90;;;;;;5051212;28;20492;-55
2023/02/09 05:25:04;;;;;;;23.43;14.43;;;-4.70;99.90;;;;;;5052811;28;20449;-51
2023/02/09 05:27:33;;;;;;;23.63;15.47;;;-4.70;99.90;;;;;;5042095;28;20492;-51
2023/02/09 05:30:01;;;;;;;24.87;14.70;;;-4.60;99.90;;;;;;5024829;28;20840;-50
2023/02/09 05:32:32;;;;;;;27.73;14.13;;;-4.70;99.90;;;;;;5011951;28;20604;-51
2023/02/09 05:34:59;;;;;;;24.37;14.47;;;-4.70;99.90;;;;;;5030983;28;20512;-50
2023/02/09 05:37:29;;;;;;;21.87;14.80;;;-4.70;99.90;;;;;;5031704;28;20441;-51
2023/02/09 05:39:56;;;;;;;22.40;13.73;;;-4.70;99.90;;;;;;5025342;28;20474;-51
2023/02/09 05:42:23;;;;;;;23.10;14.63;;;-4.70;99.90;;;;;;5028066;28;20504;-51
2023/02/09 05:44:51;;;;;;;20.47;13.87;;;-4.70;99.90;;;;;;5030232;28;20520;-50
2023/02/09 05:47:21;;;;;;;28.20;15.67;;;-4.60;99.90;;;;;;5031208;28;20936;-49
2023/02/09 05:49:48;;;;;;;26.27;15.30;;;-4.60;99.90;;;;;;5027608;28;20532;-49
2023/02/09 05:52:16;;;;;;;27.40;14.93;;;-4.60;99.90;;;;;;5026189;28;20524;-50
2023/02/09 05:54:44;;;;;;;30.87;15.87;;;-4.60;99.90;;;;;;5026705;28;20473;-50
2023/02/09 05:57:11;;;;;;;30.83;18.03;;;-4.60;99.90;;;;;;5022838;28;20535;-52
2023/02/09 05:59:38;;;;;;;26.80;16.40;;;-4.60;99.90;;;;;;5030443;28;20477;-50
2023/02/09 06:02:05;;;;;;;27.87;16.63;;;-4.60;99.90;;;;;;5028497;28;20485;-50
2023/02/09 06:04:34;;;;;;;34.40;18.27;;;-4.60;99.90;;;;;;5030567;28;20458;-50
2023/02/09 06:07:01;;;;;;;29.17;17.70;;;-4.60;99.90;;;;;;5025999;28;20545;-50
2023/02/09 06:09:28;;;;;;;27.53;15.63;;;-4.50;99.90;;;;;;5026332;28;20519;-51
2023/02/09 06:11:55;;;;;;;32.37;18.03;;;-4.60;99.90;;;;;;5027942;28;20967;-51
2023/02/09 06:14:22;;;;;;;28.67;17.80;;;-4.60;99.90;;;;;;5024862;28;20469;-51
2023/02/09 06:16:49;;;;;;;35.97;18.63;;;-4.50;99.90;;;;;;5025228;28;20457;-52
2023/02/09 06:19:18;;;;;;;34.93;17.53;;;-4.60;99.90;;;;;;5028799;28;20482;-51
2023/02/09 06:21:46;;;;;;;37.97;18.73;;;-4.60;99.90;;;;;;5029216;28;20458;-50
2023/02/09 06:24:15;;;;;;;29.40;17.77;;;-4.60;99.90;;;;;;5029409;28;20608;-50
2023/02/09 06:26:42;;;;;;;33.37;19.07;;;-4.60;99.90;;;;;;5028413;28;20461;-50
2023/02/09 06:29:09;;;;;;;34.77;18.67;;;-4.60;99.90;;;;;;5024255;28;20761;-51
2023/02/09 06:31:37;;;;;;;30.30;17.33;;;-4.60;99.90;;;;;;5025105;28;20461;-50
2023/02/09 06:34:04;;;;;;;33.77;17.23;;;-4.60;99.90;;;;;;5028834;28;20610;-49
2023/02/09 06:36:32;;;;;;;32.70;18.40;;;-4.50;99.90;;;;;;5029145;28;21012;-52
2023/02/09 06:39:00;;;;;;;35.33;20.10;;;-4.50;99.90;;;;;;5024709;28;20597;-50
2023/02/09 06:41:27;;;;;;;36.00;18.47;;;-4.50;99.90;;;;;;5023553;28;20531;-49
2023/02/09 06:43:54;;;;;;;37.03;19.40;;;-4.50;99.90;;;;;;5021901;28;20482;-50
2023/02/09 06:46:21;;;;;;;33.63;17.50;;;-4.50;99.90;;;;;;5028453;28;20454;-53
2023/02/09 06:48:48;;;;;;;32.37;18.50;;;-4.60;99.90;;;;;;5029046;28;20449;-51
2023/02/09 06:51:16;;;;;;;31.47;16.37;;;-4.60;99.90;;;;;;5022594;28;20558;-51
2023/02/09 06:53:43;;;;;;;35.07;17.93;;;-4.50;99.90;;;;;;5022841;28;20812;-53
2023/02/09 06:56:13;;;;;;;33.40;18.27;;;-4.60;99.90;;;;;;5024393;28;20881;-50
2023/02/09 06:58:41;;;;;;;32.33;18.33;;;-4.50;99.90;;;;;;5031976;28;20465;-50
2023/02/09 07:01:09;;;;;;;29.27;17.57;;;-4.50;99.90;;;;;;5033844;28;20484;-50
2023/02/09 07:03:37;;;;;;;28.40;16.27;;;-4.40;99.90;;;;;;5033562;28;20538;-51
2023/02/09 07:06:06;;;;;;;25.53;16.57;;;-4.40;99.90;;;;;;5031953;28;20459;-51
2023/02/09 07:08:33;;;;;;;38.60;18.27;;;-4.40;99.90;;;;;;5036599;28;20888;-51
2023/02/09 07:11:05;;;;;;;37.63;18.57;;;-4.30;99.90;;;;;;5027169;28;20573;-49
2023/02/09 07:13:33;;;;;;;39.57;20.43;;;-4.20;99.90;;;;;;5032247;28;20446;-51
2023/02/09 07:16:02;;;;;;;42.83;22.07;;;-4.20;99.90;;;;;;5026934;28;20462;-49
2023/02/09 07:18:30;;;;;;;41.57;21.03;;;-4.10;99.90;;;;;;5027269;28;20573;-49
2023/02/09 07:20:58;;;;;;;41.93;23.00;;;-4.00;99.90;;;;;;5034204;28;20622;-49
2023/02/09 07:23:25;;;;;;;49.53;23.00;;;-4.00;99.90;;;;;;5033186;28;20553;-49
2023/02/09 07:25:52;;;;;;;48.63;23.33;;;-3.90;99.90;;;;;;5034151;28;20743;-49
2023/02/09 07:28:20;;;;;;;37.37;21.40;;;-3.90;99.90;;;;;;5033160;28;20466;-49
2023/02/09 07:30:50;;;;;;;42.57;21.90;;;-3.80;99.90;;;;;;5026742;28;20484;-48
2023/02/09 07:33:18;;;;;;;34.33;17.50;;;-3.80;99.90;;;;;;5036353;28;20493;-49
2023/02/09 07:35:45;;;;;;;31.97;16.53;;;-3.70;99.90;;;;;;5034799;28;20446;-49
2023/02/09 07:38:12;;;;;;;29.27;16.10;;;-3.60;99.90;;;;;;5016819;28;20867;-49
2023/02/09 07:40:39;;;;;;;31.33;16.30;;;-3.50;99.90;;;;;;5029514;28;20477;-49
2023/02/09 07:43:06;;;;;;;25.10;14.23;;;-3.40;99.90;;;;;;5036550;28;20584;-49
2023/02/09 07:45:33;;;;;;;29.23;16.47;;;-3.30;99.90;;;;;;5027514;28;20461;-49
2023/02/09 07:48:02;;;;;;;22.57;13.03;;;-3.20;99.90;;;;;;5036396;28;20449;-49
2023/02/09 07:50:29;;;;;;;22.97;13.77;;;-3.10;99.90;;;;;;5036198;28;20465;-49
2023/02/09 07:52:56;;;;;;;22.60;13.33;;;-3.00;99.90;;;;;;5036835;28;20473;-49
2023/02/09 07:55:23;;;;;;;22.30;13.17;;;-2.80;99.90;;;;;;5036822;28;20581;-49
2023/02/09 07:57:50;;;;;;;26.87;12.50;;;-2.80;99.90;;;;;;5036315;28;20874;-49
2023/02/09 08:00:18;;;;;;;22.63;13.13;;;-2.60;99.90;;;;;;5034572;28;20531;-52
2023/02/09 08:02:45;;;;;;;24.23;14.00;;;-2.50;99.90;;;;;;5028027;28;20966;-51
2023/02/09 08:05:19;;;;;;;20.37;11.07;;;-2.30;99.90;;;;;;5034933;28;20746;-51
2023/02/09 08:07:46;;;;;;;16.30;10.63;;;-2.30;99.90;;;;;;5033276;28;20503;-51
2023/02/09 08:10:13;;;;;;;21.03;10.20;;;-2.20;99.90;;;;;;5031824;28;20890;-51
2023/02/09 08:15:40;;;;;;;15.77;8.53;;;-1.50;99.90;;;;;;4991902;28;20254;-51
2023/02/09 08:18:11;;;;;;;14.53;6.50;;;-0.80;99.90;;;;;;5018348;28;20249;-51
2023/02/09 08:20:40;;;;;;;11.70;7.60;;;-0.40;99.90;;;;;;5028462;28;20224;-51
2023/02/09 08:23:10;;;;;;;9.57;6.27;;;0.00;99.90;;;;;;5031864;28;20211;-51
2023/02/09 08:25:38;;;;;;;14.33;9.87;;;0.20;99.90;;;;;;5025649;28;20309;-50
2023/02/09 08:28:05;;;;;;;36.13;25.77;;;0.40;99.90;;;;;;5013820;28;20217;-51
2023/02/09 08:30:34;;;;;;;19.17;13.97;;;0.50;99.90;;;;;;5025886;28;20312;-51
2023/02/09 08:33:01;;;;;;;14.57;12.77;;;0.60;99.90;;;;;;5020832;28;20211;-51
2023/02/09 08:35:28;;;;;;;8.90;8.07;;;0.70;99.90;;;;;;5032704;28;20248;-51
2023/02/09 08:38:00;;;;;;;14.00;7.63;;;0.50;99.90;;;;;;5029406;28;20216;-51
2023/02/09 08:40:27;;;;;;;11.70;7.30;;;0.40;99.90;;;;;;5028920;28;20219;-54
2023/02/09 08:42:54;;;;;;;6.60;5.10;;;0.40;99.90;;;;;;5025592;28;20269;-51
2023/02/09 08:45:22;;;;;;;12.80;9.23;;;0.40;99.90;;;;;;5028086;28;20271;-50
2023/02/09 08:47:49;;;;;;;8.98;6.95;;;0.60;99.90;;;;;;5025204;28;20655;-52
2023/02/09 08:50:16;;;;;;;10.73;5.57;;;1.10;99.90;;;;;;5030584;28;20861;-52
2023/02/09 08:52:43;;;;;;;5.03;3.97;;;1.50;99.90;;;;;;5032116;28;20675;-51
2023/02/09 08:55:11;;;;;;;7.73;4.73;;;1.70;99.90;;;;;;5026948;28;20203;-51
2023/02/09 08:57:38;;;;;;;14.07;4.67;;;1.70;99.90;;;;;;5032131;28;20211;-53
2023/02/09 09:00:06;;;;;;;10.00;4.37;;;1.90;99.90;;;;;;5032131;28;20231;-51
2023/02/09 09:02:33;;;;;;;6.57;5.17;;;2.30;99.90;;;;;;5030535;28;20275;-51
2023/02/09 09:05:00;;;;;;;6.27;3.77;;;2.50;99.90;;;;;;5024946;28;20208;-51
2023/02/09 09:07:30;;;;;;;8.47;5.67;;;2.60;99.90;;;;;;5031921;28;20203;-51
2023/02/09 09:09:57;;;;;;;7.13;4.03;;;2.90;99.90;;;;;;5030261;28;20274;-51
2023/02/09 09:12:25;;;;;;;7.80;5.03;;;3.30;99.90;;;;;;5025570;28;20201;-52
2023/02/09 09:14:52;;;;;;;10.33;4.97;;;3.60;99.90;;;;;;5032050;28;20254;-52
2023/02/09 09:17:19;;;;;;;5.80;4.30;;;3.90;99.90;;;;;;5030732;28;20668;-52
2023/02/09 09:19:46;;;;;;;7.03;4.27;;;4.10;99.90;;;;;;5030960;28;20304;-51
2023/02/09 09:22:13;;;;;;;7.87;4.80;;;4.10;99.90;;;;;;5029262;28;20731;-52
2023/02/09 09:24:40;;;;;;;9.27;4.33;;;4.40;99.90;;;;;;5031812;28;20215;-51
2023/02/09 09:27:08;;;;;;;15.13;5.27;;;4.40;99.90;;;;;;5031771;28;20246;-52
2023/02/09 09:29:38;;;;;;;7.80;5.03;;;4.70;99.90;;;;;;5022479;28;20278;-51
2023/02/09 09:32:06;;;;;;;8.13;5.13;;;4.70;99.90;;;;;;5030541;28;20206;-52
2023/02/09 09:34:33;;;;;;;11.10;4.87;;;5.20;99.90;;;;;;5023083;28;20204;-52
2023/02/09 09:37:00;;;;;;;13.07;5.07;;;5.40;99.90;;;;;;5031557;28;20205;-51
2023/02/09 09:39:27;;;;;;;9.60;4.63;;;5.70;99.90;;;;;;5031018;28;20918;-52
2023/02/09 09:41:58;;;;;;;8.03;4.90;;;5.70;99.90;;;;;;5030915;28;20210;-52
2023/02/09 09:44:30;;;;;;;10.00;6.20;;;5.50;99.90;;;;;;5021995;28;20744;-53
2023/02/09 09:47:06;;;;;;;8.57;4.90;;;5.60;99.90;;;;;;5011310;28;20201;-53
2023/02/09 09:49:37;;;;;;;10.00;5.60;;;5.70;99.90;;;;;;5011292;28;20263;-52
2023/02/09 09:52:08;;;;;;;6.20;4.93;;;6.20;99.90;;;;;;5010637;28;20238;-51
2023/02/09 09:54:37;;;;;;;13.67;5.87;;;6.60;99.90;;;;;;5015560;28;20208;-51
2023/02/09 09:57:12;;;;;;;6.20;4.97;;;6.30;99.90;;;;;;5024528;28;20282;-51
2023/02/09 09:59:41;;;;;;;7.20;5.17;;;6.40;99.90;;;;;;5028151;28;20235;-52
2023/02/09 10:02:18;;;;;;;9.70;5.03;;;7.00;99.90;;;;;;5023715;28;20212;-52
2023/02/09 10:04:45;;;;;;;8.50;5.23;;;7.50;99.90;;;;;;5025369;28;20316;-55
2023/02/09 10:07:17;;;;;;;5.40;4.60;;;7.60;99.90;;;;;;5024742;28;20220;-52
2023/02/09 10:09:48;;;;;;;6.53;5.93;;;7.50;99.90;;;;;;5021199;28;20311;-52
2023/02/09 10:12:29;;;;;;;6.90;5.10;;;7.60;99.90;;;;;;5021769;28;20199;-52
2023/02/09 10:14:56;;;;;;;6.13;5.10;;;6.90;99.70;;;;;;5027626;28;20572;-51
2023/02/09 10:17:25;;;;;;;9.53;5.07;;;6.60;99.90;;;;;;5030288;28;20196;-52
2023/02/09 10:20:02;;;;;;;6.07;5.47;;;6.80;99.90;;;;;;5029810;28;20256;-53
2023/02/09 10:22:29;;;;;;;6.83;5.10;;;6.90;99.90;;;;;;5029924;28;20203;-52
2023/02/09 10:24:58;;;;;;;5.80;4.87;;;7.10;99.90;;;;;;5021242;28;20252;-52
2023/02/09 10:27:31;;;;;;;5.93;4.97;;;7.20;99.90;;;;;;5029921;28;20211;-52
2023/02/09 10:30:17;;;;;;;8.93;5.03;;;7.30;98.80;;;;;;5024397;28;20726;-53
2023/02/09 10:32:45;;;;;;;5.17;4.77;;;6.70;98.70;;;;;;5027126;28;20200;-53
2023/02/09 10:35:24;;;;;;;5.33;4.83;;;6.70;98.90;;;;;;5020781;28;20200;-52
2023/02/09 10:38:00;;;;;;;6.63;3.97;;;7.00;98.70;;;;;;5028307;28;20275;-52
2023/02/09 10:40:31;;;;;;;6.30;4.23;;;7.00;98.90;;;;;;5022888;28;20289;-52
2023/02/09 10:43:00;;;;;;;7.77;4.27;;;7.40;98.00;;;;;;5017934;28;20741;-52
2023/02/09 10:45:29;;;;;;;5.03;3.97;;;7.50;98.60;;;;;;5026996;28;20221;-52
2023/02/09 10:48:08;;;;;;;7.00;4.23;;;7.70;98.60;;;;;;5024229;28;20276;-52
2023/02/09 10:50:49;;;;;;;8.47;4.83;;;7.90;96.70;;;;;;5024341;28;20659;-49
2023/02/09 10:53:21;;;;;;;6.17;3.50;;;8.20;97.40;;;;;;5020503;28;20599;-52
2023/02/09 10:55:48;;;;;;;3.87;3.53;;;7.90;97.20;;;;;;5028972;28;20231;-51
2023/02/09 10:58:24;;;;;;;5.33;3.93;;;7.70;97.20;;;;;;5028997;28;20416;-51
2023/02/09 11:00:57;;;;;;;4.60;4.23;;;7.40;96.90;;;;;;5020925;28;20231;-50
2023/02/09 11:03:26;;;;;;;8.03;4.20;;;7.10;97.30;;;;;;5029039;28;20266;-51
2023/02/09 11:05:59;;;;;;;4.10;2.90;;;6.90;98.50;;;;;;5018270;28;20208;-49
2023/02/09 11:08:37;;;;;;;3.53;3.10;;;6.60;98.60;;;;;;5024524;28;20251;-49
2023/02/09 11:11:13;;;;;;;5.30;3.73;;;6.40;97.40;;;;;;5021088;28;20224;-52
2023/02/09 11:13:41;;;;;;;8.80;3.10;;;6.40;97.70;;;;;;5025587;28;20194;-51
2023/02/09 11:16:37;;;;;;;6.40;3.40;;;6.30;97.70;;;;;;5023615;28;20205;-51
2023/02/09 11:19:17;;;;;;;3.50;3.17;;;6.10;99.80;;;;;;5010517;28;20221;-51
2023/02/09 11:21:55;;;;;;;4.43;3.40;;;6.10;99.30;;;;;;5021935;28;20203;-51
2023/02/09 11:24:35;;;;;;;7.00;3.63;;;6.30;99.60;;;;;;5025538;28;20221;-51
2023/02/09 11:27:06;;;;;;;7.43;3.77;;;6.40;98.70;;;;;;5023732;28;20204;-50
2023/02/09 11:29:40;;;;;;;7.37;3.63;;;6.20;99.90;;;;;;5028334;28;20225;-51
2023/02/09 11:32:20;;;;;;;6.90;3.60;;;6.00;98.70;;;;;;5028214;28;20718;-51
2023/02/09 11:35:10;;;;;;;3.30;3.00;;;6.00;99.60;;;;;;5026319;28;20263;-51
2023/02/09 11:37:45;;;;;;;3.73;3.33;;;5.80;99.00;;;;;;5025017;28;20217;-51
2023/02/09 11:40:24;;;;;;;4.17;3.73;;;5.80;99.40;;;;;;5019354;28;20598;-51
2023/02/09 11:42:58;;;;;;;7.93;4.27;;;5.90;99.90;;;;;;5034017;28;20282;-49
2023/02/09 11:45:33;;;;;;;5.93;4.40;;;5.90;97.40;;;;;;5031686;28;20224;-51
2023/02/09 11:48:08;;;;;;;3.70;3.40;;;6.00;99.00;;;;;;5013353;28;20243;-51
2023/02/09 11:50:49;;;;;;;6.40;4.03;;;6.00;98.10;;;;;;5025552;28;20713;-50
2023/02/09 11:53:25;;;;;;;5.47;3.97;;;6.00;98.70;;;;;;5032018;28;20627;-49
2023/02/09 11:55:56;;;;;;;7.70;4.43;;;6.00;98.50;;;;;;5028246;28;20281;-52
2023/02/09 11:58:45;;;;;;;6.73;4.43;;;5.80;97.20;;;;;;5032831;28;20204;-50
2023/02/09 12:01:24;;;;;;;5.40;3.67;;;5.90;98.90;;;;;;5032592;28;20299;-51
2023/02/09 12:03:59;;;;;;;4.00;3.53;;;5.80;97.70;;;;;;5031895;28;20227;-50
2023/02/09 12:06:33;;;;;;;4.23;3.83;;;5.80;98.50;;;;;;5032668;28;20204;-52
2023/02/09 12:09:10;;;;;;;8.77;4.87;;;5.90;99.40;;;;;;5023533;28;20246;-52
2023/02/09 12:11:53;;;;;;;7.00;4.40;;;5.80;99.90;;;;;;5032081;28;20466;-50
2023/02/09 12:14:43;;;;;;;6.57;4.27;;;5.80;99.30;;;;;;5033004;28;20235;-52
2023/02/09 12:17:17;;;;;;;3.30;3.00;;;5.90;99.60;;;;;;5010993;28;20307;-51
2023/02/09 12:19:45;;;;;;;4.10;3.50;;;5.90;99.00;;;;;;5012925;28;20229;-52
2023/02/09 12:22:41;;;;;;;6.33;3.53;;;5.90;99.70;;;;;;5019846;28;20205;-52
2023/02/09 12:25:19;;;;;;;5.97;4.30;;;5.90;99.10;;;;;;5025804;28;20221;-51
2023/02/09 12:28:10;;;;;;;5.77;3.87;;;5.90;99.10;;;;;;5032562;28;20277;-50
2023/02/09 12:31:02;;;;;;;5.40;3.97;;;5.80;99.90;;;;;;5026306;28;20596;-51
2023/02/09 12:33:32;;;;;;;3.80;3.50;;;5.80;99.10;;;;;;5014459;28;20205;-52
2023/02/09 12:36:02;;;;;;;8.40;4.30;;;5.80;99.00;;;;;;5030377;28;20331;-52
2023/02/09 12:38:59;;;;;;;4.63;4.03;;;5.80;99.90;;;;;;5029695;28;20204;-52
2023/02/09 12:41:28;;;;;;;6.60;4.47;;;5.80;98.90;;;;;;5027700;28;20208;-49
2023/02/09 12:44:26;;;;;;;5.60;4.87;;;5.70;98.80;;;;;;5032106;28;20208;-50
2023/02/09 12:46:55;;;;;;;7.00;4.00;;;5.70;98.80;;;;;;5027083;28;20678;-49
2023/02/09 12:49:31;;;;;;;6.07;4.20;;;5.70;99.90;;;;;;5023957;28;20244;-51
2023/02/09 12:52:13;;;;;;;6.40;5.07;;;5.90;99.90;;;;;;5023674;28;20203;-51
2023/02/09 12:54:49;;;;;;;9.80;7.03;;;5.80;99.10;;;;;;5031997;28;20311;-50
2023/02/09 12:57:53;;;;;;;23.77;13.60;;;5.80;99.90;;;;;;5032353;28;20692;-51
2023/02/09 13:00:42;;;;;;;21.87;15.23;;;5.80;99.90;;;;;;5032072;28;20315;-50
2023/02/09 13:03:20;;;;;;;22.63;14.83;;;5.80;99.90;;;;;;5020667;28;20197;-51